^^
Station Historical Data
Daily Summary for August 19, 2017 Units:  Metric    English   Both
« Previous Day
Next Day »
Daily Weekly Monthly Yearly Custom
  High: Low: Average:
Temperature: 25.9 °C 7.8 °C 16.2 °C
Dew Point: -3.1 °C -9.8 °C -6.4 °C
Humidity: 37% 10% 22%
Wind Speed: 33.8km/h 0km/h 6.3km/h
Wind Gust: 40.2km/h - -
Wind- - SSE
Pressure: 1019.5 hPa 1014.4 hPa -
Precipitation: 0 mm    
Historical Graphs
 
 
Tabular Data for August 19, 2017
Time Temperature Dew Point Pressure Wind Wind Speed Wind Gust Humidity Rainfall Rate (Hourly) solar Conditions
00:09 14.1 °C -5.1 °C 1018.2 hPa NE 1.4 km/h 9.7 km/h 26% 0 mm 0.0 W/m2
00:19 13.7 °C -5 °C 1018.2 hPa Calm     27% 0 mm 0.0 W/m2
00:24 13.7 °C -5 °C 1018.2 hPa NE 7.9 km/h 12.9 km/h 27% 0 mm 0.0 W/m2
00:29 13.6 °C -5.1 °C 1018.2 hPa NE 3.2 km/h 9.7 km/h 27% 0 mm 0.0 W/m2
00:34 13.6 °C -5.1 °C 1018.2 hPa Calm     27% 0 mm 0.0 W/m2
00:39 13.7 °C -5 °C 1018.2 hPa Calm   9.7 km/h 27% 0 mm 0.0 W/m2
00:44 13.6 °C -5.1 °C 1018.2 hPa NE 3.2 km/h 8 km/h 27% 0 mm 0.0 W/m2
00:54 13.3 °C -5.3 °C 1017.8 hPa NE 3.2 km/h 9.7 km/h 27% 0 mm 0.0 W/m2
01:04 13.1 °C -5.5 °C 1017.8 hPa NE 9.7 km/h 11.3 km/h 27% 0 mm 0.0 W/m2
01:09 13 °C -5.1 °C 1017.8 hPa NE 6.4 km/h 8 km/h 28% 0 mm 0.0 W/m2
01:14 13.1 °C -5.5 °C 1017.8 hPa Calm   9.7 km/h 27% 0 mm 0.0 W/m2
01:19 13 °C -5.6 °C 1017.8 hPa NE 7.9 km/h 8 km/h 27% 0 mm 0.0 W/m2
01:24 13.1 °C -5.5 °C 1017.8 hPa NE 7.9 km/h 8 km/h 27% 0 mm 0.0 W/m2
01:30 13.4 °C -5.2 °C 1017.8 hPa NE 6.4 km/h 9.7 km/h 27% 0 mm 0.0 W/m2
01:35 13.8 °C -5.4 °C 1017.8 hPa NE 9.7 km/h 9.7 km/h 26% 0 mm 0.0 W/m2
01:40 14 °C -5.2 °C 1017.8 hPa NE 3.2 km/h 8 km/h 26% 0 mm 0.0 W/m2
01:45 14 °C -5.2 °C 1017.8 hPa Calm     26% 0 mm 0.0 W/m2
01:50 13.7 °C -5.5 °C 1017.8 hPa Calm     26% 0 mm 0.0 W/m2
01:55 13.4 °C -5.2 °C 1017.8 hPa Calm     27% 0 mm 0.0 W/m2
02:01 13.1 °C -6 °C 1017.8 hPa Calm     26% 0 mm 0.0 W/m2
02:11 12.1 °C -5.9 °C 1017.8 hPa Calm     28% 0 mm 0.0 W/m2
02:16 11.8 °C -5.7 °C 1017.8 hPa Calm     29% 0 mm 0.0 W/m2
02:21 11.7 °C -5.8 °C 1017.8 hPa Calm     29% 0 mm 0.0 W/m2
02:27 11.3 °C -6.1 °C 1017.8 hPa Calm     29% 0 mm 0.0 W/m2
02:32 11.2 °C -5.7 °C 1017.8 hPa Calm     30% 0 mm 0.0 W/m2
02:37 11.1 °C -6.3 °C 1017.8 hPa Calm     29% 0 mm 0.0 W/m2
02:42 10.8 °C -5.7 °C 1017.8 hPa Calm     31% 0 mm 0.0 W/m2
02:47 11.2 °C -5.3 °C 1017.5 hPa Calm   8 km/h 31% 0 mm 0.0 W/m2
02:52 11.7 °C -5.3 °C 1017.8 hPa North 9.7 km/h 11.3 km/h 30% 0 mm 0.0 W/m2
02:57 12.1 °C -5.4 °C 1017.8 hPa North 1.4 km/h 6.4 km/h 29% 0 mm 0.0 W/m2
03:02 12.2 °C -5.3 °C 1017.8 hPa North 3.2 km/h 9.7 km/h 29% 0 mm 0.0 W/m2
03:07 12.3 °C -5.2 °C 1017.8 hPa North 3.2 km/h 9.7 km/h 29% 0 mm 0.0 W/m2
03:13 12.4 °C -5.2 °C 1017.8 hPa North 1.4 km/h 11.3 km/h 29% 0 mm 0.0 W/m2
03:18 12.4 °C -5.6 °C 1017.8 hPa North 6.4 km/h 9.7 km/h 28% 0 mm 0.0 W/m2
03:23 12.3 °C -5.2 °C 1017.8 hPa North 1.4 km/h 9.7 km/h 29% 0 mm 0.0 W/m2
03:28 12.1 °C -5.4 °C 1017.8 hPa Calm   6.4 km/h 29% 0 mm 0.0 W/m2
03:38 11.7 °C -5.3 °C 1018.2 hPa Calm   9.7 km/h 30% 0 mm 0.0 W/m2
03:43 11.7 °C -5.3 °C 1017.8 hPa NNW 3.2 km/h 6.4 km/h 30% 0 mm 0.0 W/m2
03:48 11.7 °C -5.3 °C 1018.2 hPa Calm   8 km/h 30% 0 mm 0.0 W/m2
03:53 11.7 °C -5.3 °C 1018.2 hPa NNW 1.4 km/h 6.4 km/h 30% 0 mm 0.0 W/m2
03:58 11.6 °C -5.4 °C 1018.2 hPa Calm   3.2 km/h 30% 0 mm 0.0 W/m2
04:03 11.4 °C -5.6 °C 1018.5 hPa Calm   6.4 km/h 30% 0 mm 0.0 W/m2
04:08 11.3 °C -5.2 °C 1018.5 hPa Calm   6.4 km/h 31% 0 mm 0.0 W/m2
04:18 11.1 °C -5.4 °C 1018.5 hPa Calm     31% 0 mm 0.0 W/m2
04:33 11.1 °C -5.4 °C 1018.5 hPa Calm     31% 0 mm 0.0 W/m2
04:39 10.8 °C -5.7 °C 1018.5 hPa Calm   9.7 km/h 31% 0 mm 0.0 W/m2
04:44 10.5 °C -5.5 °C 1018.5 hPa North 1.4 km/h 9.7 km/h 32% 0 mm 0.0 W/m2
04:49 10.3 °C -5.3 °C 1018.5 hPa North 6.4 km/h 8 km/h 33% 0 mm 0.0 W/m2
04:54 10.1 °C -5.5 °C 1018.8 hPa North 6.4 km/h 9.7 km/h 33% 0 mm 0.0 W/m2
04:59 10 °C -5.5 °C 1018.8 hPa North 9.7 km/h 11.3 km/h 33% 0 mm 0.0 W/m2
05:04 9.9 °C -5.6 °C 1018.8 hPa North 6.4 km/h 12.9 km/h 33% 0 mm 0.0 W/m2
05:09 9.9 °C -5.6 °C 1018.8 hPa North 7.9 km/h 12.9 km/h 33% 0 mm 0.0 W/m2
05:14 9.6 °C -5.9 °C 1018.8 hPa Calm   14.5 km/h 33% 0 mm 0.0 W/m2
05:19 9.1 °C -5.6 °C 1019.2 hPa Calm     35% 0 mm 0.0 W/m2
05:29 8.7 °C -5.9 °C 1019.2 hPa Calm   9.7 km/h 35% 0 mm 0.0 W/m2
06:04 8.4 °C -5.8 °C 1019.5 hPa North 7.9 km/h 11.3 km/h 36% 0 mm 0.0 W/m2
06:09 8.2 °C -6 °C 1019.5 hPa North 9.7 km/h 12.9 km/h 36% 0 mm 0.0 W/m2
06:15 8.1 °C -5.7 °C 1019.5 hPa NNE 6.4 km/h 11.3 km/h 37% 0 mm 0.0 W/m2
06:25 8.1 °C -5.7 °C 1019.5 hPa NNE 6.4 km/h 12.9 km/h 37% 0 mm 11.0 W/m2
06:35 7.8 °C -6 °C 1019.5 hPa NNE 3.2 km/h 12.9 km/h 37% 0 mm 14.0 W/m2
06:45 8.4 °C -5.5 °C 1019.5 hPa NNE 6.4 km/h 14.5 km/h 37% 0 mm 18.0 W/m2
06:50 8.9 °C -5.4 °C 1019.5 hPa NNE 9.7 km/h 16.1 km/h 36% 0 mm 21.0 W/m2
06:55 9.3 °C -5.4 °C 1019.5 hPa NNE 14.3 km/h 16.1 km/h 35% 0 mm 74.0 W/m2
07:00 9.8 °C -4.9 °C 1019.5 hPa NNE 7.9 km/h 12.9 km/h 35% 0 mm 91.0 W/m2
07:07 10.2 °C -5 °C 1019.5 hPa Calm   14.5 km/h 34% 0 mm 109.0 W/m2
07:10 10.5 °C -4.7 °C 1019.5 hPa Calm   14.5 km/h 34% 0 mm 130.0 W/m2
07:25 11.2 °C -4.5 °C 1019.5 hPa NE 1.4 km/h 11.3 km/h 33% 0 mm 169.0 W/m2
07:40 12.4 °C -4.3 °C 1019.5 hPa North 20.9 km/h 24.1 km/h 31% 0 mm 225.0 W/m2
07:53 12.9 °C -4.3 °C 1019.5 hPa NNW 20.9 km/h 29 km/h 30% 0 mm 232.0 W/m2
08:05 13.2 °C -4 °C 1019.5 hPa NNE 16.3 km/h 29 km/h 30% 0 mm 265.0 W/m2
08:10 13.7 °C -4 °C 1019.5 hPa North 11.1 km/h 33.8 km/h 29% 0 mm 239.0 W/m2
08:24 14.1 °C -4.1 °C 1019.5 hPa North 11.1 km/h 32.2 km/h 28% 0 mm 313.0 W/m2
08:30 14.4 °C -3.9 °C 1019.5 hPa NNW 19.5 km/h 24.1 km/h 28% 0 mm 313.0 W/m2
08:45 14.7 °C -4.1 °C 1019.5 hPa NNW 22.7 km/h 24.1 km/h 27% 0 mm 387.0 W/m2
08:55 15.4 °C -4 °C 1019.5 hPa North 27.4 km/h 29 km/h 26% 0 mm 457.0 W/m2
09:05 16 °C -3.5 °C 1019.5 hPa North 30.6 km/h 32.2 km/h 26% 0 mm 524.0 W/m2
09:17 16.6 °C -3.5 °C 1019.5 hPa NNW 24.1 km/h 29 km/h 25% 0 mm 466.0 W/m2
09:20 16.7 °C -3.4 °C 1019.5 hPa North 17.7 km/h 32.2 km/h 25% 0 mm 352.0 W/m2
09:28 16.8 °C -3.9 °C 1019.5 hPa North 28.8 km/h 29 km/h 24% 0 mm 425.0 W/m2
09:30 17.3 °C -3.5 °C 1019.5 hPa NNW 20.9 km/h 27.4 km/h 24% 0 mm 603.0 W/m2
09:35 17.6 °C -3.8 °C 1019.5 hPa North 20.9 km/h 24.1 km/h 23% 0 mm 628.0 W/m2
09:45 18.4 °C -3.1 °C 1019.2 hPa North 19.5 km/h 30.6 km/h 23% 0 mm 536.0 W/m2
09:55 19 °C -3.2 °C 1019.2 hPa NNW 9.7 km/h 30.6 km/h 22% 0 mm 441.0 W/m2
10:10 19.5 °C -3.4 °C 1019.2 hPa NNW 13 km/h 33.8 km/h 21% 0 mm 418.0 W/m2
10:24 20.2 °C -3.5 °C 1018.8 hPa NNW 22.7 km/h 30.6 km/h 20% 0 mm 311.0 W/m2
10:32 19.8 °C -3.8 °C 1019.2 hPa North 7.9 km/h 32.2 km/h 20% 0 mm 510.0 W/m2
11:41 22.6 °C -4.5 °C 1017.8 hPa North 11.1 km/h 33.8 km/h 16% 0 mm 717.0 W/m2
11:47 22.7 °C -4.4 °C 1017.5 hPa North 16.3 km/h 29 km/h 16% 0 mm 717.0 W/m2
12:04 23.2 °C -4.9 °C 1017.5 hPa North 19.5 km/h 32.2 km/h 15% 0 mm 715.0 W/m2
12:18 23.2 °C -5.8 °C 1017.2 hPa North 20.9 km/h 40.2 km/h 14% 0 mm 714.0 W/m2
12:30 23.4 °C -5.6 °C 1016.8 hPa NNE 7.9 km/h 35.4 km/h 14% 0 mm 705.0 W/m2
12:38 23.6 °C -5.5 °C 1016.5 hPa NNE 11.1 km/h 32.2 km/h 14% 0 mm 696.0 W/m2
12:48 24.1 °C -6 °C 1016.5 hPa North 20.9 km/h 30.6 km/h 13% 0 mm 689.0 W/m2
12:53 24.2 °C -6 °C 1016.5 hPa North 19.5 km/h 24.1 km/h 13% 0 mm 687.0 W/m2
13:02 24.2 °C -6 °C 1016.1 hPa NNE 9.7 km/h 25.7 km/h 13% 0 mm 671.0 W/m2
13:07 24.3 °C -5.9 °C 1016.1 hPa North 33.8 km/h 33.8 km/h 13% 0 mm 664.0 W/m2
13:17 24.4 °C -8 °C 1016.1 hPa North 19.5 km/h 27.4 km/h 11% 0 mm 652.0 W/m2
13:22 24.7 °C -7.8 °C 1015.8 hPa NW 28.8 km/h 29 km/h 11% 0 mm 643.0 W/m2
13:32 24.9 °C -7.6 °C 1015.8 hPa North 6.4 km/h 32.2 km/h 11% 0 mm 628.0 W/m2
13:39 25.1 °C -7.4 °C 1015.8 hPa North 22.7 km/h 29 km/h 11% 0 mm 621.0 W/m2
14:07 25.4 °C -8.4 °C 1015.8 hPa NNW 22.7 km/h 30.6 km/h 10% 0 mm 570.0 W/m2
14:21 25.6 °C -8.3 °C 1015.5 hPa North 9.7 km/h 22.5 km/h 10% 0 mm 536.0 W/m2
14:30 25.5 °C -8.4 °C 1015.1 hPa North 14.3 km/h 25.7 km/h 10% 0 mm 517.0 W/m2
14:39 25.6 °C -8.3 °C 1015.5 hPa North 14.3 km/h 25.7 km/h 10% 0 mm 487.0 W/m2
14:51 25.8 °C -8.1 °C 1015.5 hPa NE 1.4 km/h 22.5 km/h 10% 0 mm 462.0 W/m2
15:01 25.9 °C -8.1 °C 1015.1 hPa North 11.1 km/h 22.5 km/h 10% 0 mm 434.0 W/m2
15:11 25.7 °C -8.2 °C 1015.1 hPa North 6.4 km/h 24.1 km/h 10% 0 mm 406.0 W/m2
15:22 25.5 °C -8.4 °C 1015.1 hPa ENE 3.2 km/h 19.3 km/h 10% 0 mm 383.0 W/m2
15:37 25.4 °C -8.4 °C 1014.8 hPa NNE 11.1 km/h 27.4 km/h 10% 0 mm 329.0 W/m2
15:47 25.8 °C -8.1 °C 1014.8 hPa North 9.7 km/h 16.1 km/h 10% 0 mm 297.0 W/m2
16:01 25.3 °C -8.5 °C 1014.4 hPa NNE 11.1 km/h 19.3 km/h 10% 0 mm 253.0 W/m2
16:21 25.4 °C -8.4 °C 1014.4 hPa North 7.9 km/h 16.1 km/h 10% 0 mm 181.0 W/m2
16:30 25.4 °C -8.4 °C 1014.4 hPa North 14.3 km/h 22.5 km/h 10% 0 mm 141.0 W/m2
16:40 25.6 °C -8.3 °C 1014.4 hPa NNE 6.4 km/h 20.9 km/h 10% 0 mm 104.0 W/m2
16:49 25.4 °C -8.4 °C 1014.4 hPa Calm   14.5 km/h 10% 0 mm 72.0 W/m2
17:03 25 °C -8.7 °C 1014.4 hPa Calm   19.3 km/h 10% 0 mm 33.0 W/m2
17:18 24.7 °C -9 °C 1014.4 hPa Calm   11.3 km/h 10% 0 mm 11.0 W/m2
17:28 24.4 °C -9.2 °C 1014.4 hPa Calm   11.3 km/h 10% 0 mm 0.0 W/m2
17:38 24.1 °C -8.2 °C 1014.8 hPa Calm   8 km/h 11% 0 mm 0.0 W/m2
17:44 23.8 °C -8.4 °C 1014.8 hPa Calm     11% 0 mm 0.0 W/m2
17:49 23.6 °C -8.6 °C 1014.8 hPa Calm     11% 0 mm 0.0 W/m2
17:55 23.3 °C -8.8 °C 1014.8 hPa Calm     11% 0 mm 0.0 W/m2
18:18 22.5 °C -8.3 °C 1015.1 hPa Calm     12% 0 mm 0.0 W/m2
18:58 18.1 °C -9.8 °C 1015.1 hPa Calm     14% 0 mm 0.0 W/m2
19:10 17.2 °C -8.9 °C 1015.5 hPa Calm     16% 0 mm 0.0 W/m2
19:38 16.7 °C -9.3 °C 1015.8 hPa Calm     16% 0 mm 0.0 W/m2
19:54 16.7 °C -9.3 °C 1015.8 hPa Calm     16% 0 mm 0.0 W/m2
20:09 17.9 °C -8.3 °C 1015.8 hPa NNE 1.4 km/h 8 km/h 16% 0 mm 0.0 W/m2
20:39 18.8 °C -8.4 °C 1016.1 hPa NNE 3.2 km/h 3.2 km/h 15% 0 mm 0.0 W/m2
20:52 18.6 °C -8.6 °C 1016.1 hPa Calm   11.3 km/h 15% 0 mm 0.0 W/m2
21:12 19 °C -8.2 °C 1016.5 hPa Calm   6.4 km/h 15% 0 mm 0.0 W/m2
21:20 19 °C -8.2 °C 1016.5 hPa Calm   8 km/h 15% 0 mm 0.0 W/m2
21:25 18.8 °C -8.4 °C 1016.5 hPa NE 1.4 km/h 1.6 km/h 15% 0 mm 0.0 W/m2
21:30 18.9 °C -8.3 °C 1016.5 hPa Calm   4.8 km/h 15% 0 mm 0.0 W/m2
21:35 18.8 °C -8.4 °C 1016.5 hPa Calm   3.2 km/h 15% 0 mm 0.0 W/m2
21:45 18.8 °C -8.4 °C 1016.5 hPa NE 6.4 km/h 8 km/h 15% 0 mm 0.0 W/m2
21:50 18.9 °C -8.3 °C 1016.5 hPa Calm   6.4 km/h 15% 0 mm 0.0 W/m2
22:01 18.8 °C -8.4 °C 1016.5 hPa Calm   1.6 km/h 15% 0 mm 0.0 W/m2
22:06 18.7 °C -8.5 °C 1016.5 hPa Calm     15% 0 mm 0.0 W/m2
22:11 18.2 °C -8.9 °C 1016.5 hPa Calm     15% 0 mm 0.0 W/m2
22:16 17.3 °C -8.8 °C 1016.5 hPa Calm     16% 0 mm 0.0 W/m2
22:22 16.8 °C -8.4 °C 1016.5 hPa Calm     17% 0 mm 0.0 W/m2
22:27 16.6 °C -7.8 °C 1016.5 hPa Calm     18% 0 mm 0.0 W/m2
22:32 16.6 °C -8.6 °C 1016.5 hPa Calm     17% 0 mm 0.0 W/m2
22:37 16.2 °C -8.2 °C 1016.5 hPa Calm     18% 0 mm 0.0 W/m2
22:42 15.7 °C -9.3 °C 1016.5 hPa Calm     17% 0 mm 0.0 W/m2
22:47 15.2 °C -8.3 °C 1016.5 hPa Calm     19% 0 mm 0.0 W/m2
22:57 14.5 °C -8.2 °C 1016.5 hPa Calm     20% 0 mm 0.0 W/m2
23:03 14.2 °C -7.8 °C 1016.5 hPa Calm     21% 0 mm 0.0 W/m2
23:08 13.9 °C -8.1 °C 1016.5 hPa Calm     21% 0 mm 0.0 W/m2
23:13 13.9 °C -8.1 °C 1016.5 hPa Calm     21% 0 mm 0.0 W/m2
23:18 14 °C -8.6 °C 1016.8 hPa Calm     20% 0 mm 0.0 W/m2
23:23 13.9 °C -8.7 °C 1016.8 hPa Calm     20% 0 mm 0.0 W/m2
23:28 13.3 °C -9.2 °C 1016.8 hPa Calm     20% 0 mm 0.0 W/m2
23:34 12.6 °C -9.8 °C 1016.8 hPa Calm     20% 0 mm 0.0 W/m2
23:39 12.2 °C -8.9 °C 1016.8 hPa NE 3.2 km/h 8 km/h 22% 0 mm 0.0 W/m2
23:44 12.3 °C -8.8 °C 1016.8 hPa NE 6.4 km/h 8 km/h 22% 0 mm 0.0 W/m2
23:49 12.6 °C -8.6 °C 1016.8 hPa Calm   4.8 km/h 22% 0 mm 0.0 W/m2
23:54 12.9 °C -8.3 °C 1016.8 hPa Calm   8 km/h 22% 0 mm 0.0 W/m2
23:59 13.2 °C -8.7 °C 1016.8 hPa NE 6.4 km/h 6.4 km/h 21% 0 mm 0.0 W/m2
Canyon Roadhouse, Fishriver Canyon, Namibia
Compliments of Weather Underground - 2.5 mb